Terminal Aerodrome Forecast
Issued by NWS

Home | Current Version | Previous Version | Text Only | Print | Product List | Glossary On
Versions: 1 2 3 4 5 6 7 8 9 10 11 12 13 14 15
000
FTUS46 KMTR 041400 AAA
TAFSTS
TAF AMD
KSTS 041424Z 0414/0512 VRB03KT 6SM BR SKC
      TEMPO 0414/0416 2SM BR SKC
     FM042000 17007KT P6SM SKC
     FM050300 VRB03KT P6SM SKC
     FM051000 00000KT 3SM BR SKC=

USA.gov is the U.S. government's official web portal to all federal, state and local government web resources and services.